sensor_id;sensor_type;location;lat;lon;timestamp;P1;durP1;ratioP1;P2;durP2;ratioP2
15449;SDS011;7826;49.784;9.934;2024-01-30T00:00:00;9.80;;;6.33;;
15449;SDS011;7826;49.784;9.934;2024-01-30T00:02:27;10.13;;;6.80;;
15449;SDS011;7826;49.784;9.934;2024-01-30T00:04:53;10.27;;;6.43;;
15449;SDS011;7826;49.784;9.934;2024-01-30T00:07:19;10.00;;;7.07;;
15449;SDS011;7826;49.784;9.934;2024-01-30T00:09:46;9.83;;;6.70;;
15449;SDS011;7826;49.784;9.934;2024-01-30T00:12:14;8.13;;;6.10;;
15449;SDS011;7826;49.784;9.934;2024-01-30T00:14:43;11.17;;;6.87;;
15449;SDS011;7826;49.784;9.934;2024-01-30T00:17:09;10.73;;;6.50;;
15449;SDS011;7826;49.784;9.934;2024-01-30T00:19:36;10.80;;;6.33;;
15449;SDS011;7826;49.784;9.934;2024-01-30T00:22:02;13.17;;;6.53;;
15449;SDS011;7826;49.784;9.934;2024-01-30T00:24:28;9.93;;;6.57;;
15449;SDS011;7826;49.784;9.934;2024-01-30T00:26:54;8.00;;;5.77;;
15449;SDS011;7826;49.784;9.934;2024-01-30T00:29:20;9.73;;;6.57;;
15449;SDS011;7826;49.784;9.934;2024-01-30T00:31:48;10.70;;;6.20;;
15449;SDS011;7826;49.784;9.934;2024-01-30T00:34:14;10.43;;;6.87;;
15449;SDS011;7826;49.784;9.934;2024-01-30T00:36:40;9.17;;;6.10;;
15449;SDS011;7826;49.784;9.934;2024-01-30T00:39:07;11.60;;;7.57;;
15449;SDS011;7826;49.784;9.934;2024-01-30T00:41:34;9.30;;;6.50;;
15449;SDS011;7826;49.784;9.934;2024-01-30T00:44:01;10.37;;;6.87;;
15449;SDS011;7826;49.784;9.934;2024-01-30T00:46:27;8.17;;;6.33;;
15449;SDS011;7826;49.784;9.934;2024-01-30T00:48:53;8.63;;;6.23;;
15449;SDS011;7826;49.784;9.934;2024-01-30T00:51:19;9.37;;;6.03;;
15449;SDS011;7826;49.784;9.934;2024-01-30T00:53:45;11.00;;;6.73;;
15449;SDS011;7826;49.784;9.934;2024-01-30T00:56:11;10.00;;;6.93;;
15449;SDS011;7826;49.784;9.934;2024-01-30T00:58:37;10.73;;;6.37;;
15449;SDS011;7826;49.784;9.934;2024-01-30T01:01:03;9.00;;;6.17;;
15449;SDS011;7826;49.784;9.934;2024-01-30T01:03:30;10.07;;;6.37;;
15449;SDS011;7826;49.784;9.934;2024-01-30T01:05:56;10.80;;;6.53;;
15449;SDS011;7826;49.784;9.934;2024-01-30T01:08:22;9.03;;;5.63;;
15449;SDS011;7826;49.784;9.934;2024-01-30T01:10:48;9.77;;;6.67;;
15449;SDS011;7826;49.784;9.934;2024-01-30T01:13:14;8.47;;;6.33;;
15449;SDS011;7826;49.784;9.934;2024-01-30T01:15:40;11.63;;;6.70;;
15449;SDS011;7826;49.784;9.934;2024-01-30T01:18:06;8.47;;;5.53;;
15449;SDS011;7826;49.784;9.934;2024-01-30T01:20:32;12.13;;;6.47;;
15449;SDS011;7826;49.784;9.934;2024-01-30T01:22:58;10.43;;;5.70;;
15449;SDS011;7826;49.784;9.934;2024-01-30T01:25:24;9.50;;;6.27;;
15449;SDS011;7826;49.784;9.934;2024-01-30T01:27:51;9.37;;;6.23;;
15449;SDS011;7826;49.784;9.934;2024-01-30T01:30:18;9.23;;;6.10;;
15449;SDS011;7826;49.784;9.934;2024-01-30T02:48:32;9.97;;;7.17;;
15449;SDS011;7826;49.784;9.934;2024-01-30T02:50:58;10.77;;;7.37;;
15449;SDS011;7826;49.784;9.934;2024-01-30T02:53:24;10.57;;;7.13;;
15449;SDS011;7826;49.784;9.934;2024-01-30T02:55:50;12.27;;;7.30;;
15449;SDS011;7826;49.784;9.934;2024-01-30T02:58:17;8.03;;;6.67;;
15449;SDS011;7826;49.784;9.934;2024-01-30T03:00:43;14.03;;;7.30;;
15449;SDS011;7826;49.784;9.934;2024-01-30T03:03:09;10.40;;;6.83;;
15449;SDS011;7826;49.784;9.934;2024-01-30T03:05:36;11.27;;;7.93;;
15449;SDS011;7826;49.784;9.934;2024-01-30T03:08:03;11.20;;;7.10;;
15449;SDS011;7826;49.784;9.934;2024-01-30T03:10:31;12.20;;;7.40;;
15449;SDS011;7826;49.784;9.934;2024-01-30T03:12:57;10.37;;;7.33;;
15449;SDS011;7826;49.784;9.934;2024-01-30T03:15:23;9.53;;;6.90;;
15449;SDS011;7826;49.784;9.934;2024-01-30T03:17:49;10.97;;;7.23;;
15449;SDS011;7826;49.784;9.934;2024-01-30T03:20:16;10.70;;;7.07;;
15449;SDS011;7826;49.784;9.934;2024-01-30T03:22:42;8.67;;;7.10;;
15449;SDS011;7826;49.784;9.934;2024-01-30T03:25:08;10.50;;;7.33;;
15449;SDS011;7826;49.784;9.934;2024-01-30T03:27:34;12.00;;;7.33;;
15449;SDS011;7826;49.784;9.934;2024-01-30T03:30:00;13.97;;;7.50;;
15449;SDS011;7826;49.784;9.934;2024-01-30T03:32:26;12.80;;;7.73;;
15449;SDS011;7826;49.784;9.934;2024-01-30T03:34:53;10.47;;;7.40;;
15449;SDS011;7826;49.784;9.934;2024-01-30T03:37:19;10.27;;;7.63;;
15449;SDS011;7826;49.784;9.934;2024-01-30T03:39:45;8.50;;;7.13;;
15449;SDS011;7826;49.784;9.934;2024-01-30T03:42:11;14.67;;;7.20;;
15449;SDS011;7826;49.784;9.934;2024-01-30T03:44:37;9.13;;;7.03;;
15449;SDS011;7826;49.784;9.934;2024-01-30T03:47:03;10.27;;;6.97;;
15449;SDS011;7826;49.784;9.934;2024-01-30T03:49:30;11.20;;;7.03;;
15449;SDS011;7826;49.784;9.934;2024-01-30T03:51:56;12.00;;;7.80;;
15449;SDS011;7826;49.784;9.934;2024-01-30T03:54:22;13.93;;;8.10;;
15449;SDS011;7826;49.784;9.934;2024-01-30T03:56:48;14.67;;;8.30;;
15449;SDS011;7826;49.784;9.934;2024-01-30T03:59:14;9.60;;;7.20;;
15449;SDS011;7826;49.784;9.934;2024-01-30T04:01:40;9.97;;;8.27;;
15449;SDS011;7826;49.784;9.934;2024-01-30T04:04:06;11.27;;;7.37;;
15449;SDS011;7826;49.784;9.934;2024-01-30T04:06:32;14.03;;;8.07;;
15449;SDS011;7826;49.784;9.934;2024-01-30T04:08:59;12.33;;;8.20;;
15449;SDS011;7826;49.784;9.934;2024-01-30T04:11:25;9.83;;;7.27;;
15449;SDS011;7826;49.784;9.934;2024-01-30T04:13:51;13.73;;;7.63;;
15449;SDS011;7826;49.784;9.934;2024-01-30T04:16:20;12.97;;;7.60;;
15449;SDS011;7826;49.784;9.934;2024-01-30T04:18:47;11.80;;;6.90;;
15449;SDS011;7826;49.784;9.934;2024-01-30T04:21:13;10.57;;;7.10;;
15449;SDS011;7826;49.784;9.934;2024-01-30T04:23:40;10.47;;;7.57;;
15449;SDS011;7826;49.784;9.934;2024-01-30T04:26:07;14.73;;;7.67;;
15449;SDS011;7826;49.784;9.934;2024-01-30T04:28:33;12.63;;;6.90;;
15449;SDS011;7826;49.784;9.934;2024-01-30T04:30:59;18.77;;;7.90;;
15449;SDS011;7826;49.784;9.934;2024-01-30T04:33:25;11.07;;;7.07;;
15449;SDS011;7826;49.784;9.934;2024-01-30T04:35:51;12.07;;;7.10;;
15449;SDS011;7826;49.784;9.934;2024-01-30T04:38:17;10.57;;;7.20;;
15449;SDS011;7826;49.784;9.934;2024-01-30T04:40:43;11.43;;;7.10;;
15449;SDS011;7826;49.784;9.934;2024-01-30T04:43:09;11.23;;;6.77;;
15449;SDS011;7826;49.784;9.934;2024-01-30T04:45:36;10.87;;;7.57;;
15449;SDS011;7826;49.784;9.934;2024-01-30T04:48:02;13.37;;;7.60;;
15449;SDS011;7826;49.784;9.934;2024-01-30T04:50:28;10.00;;;6.90;;
15449;SDS011;7826;49.784;9.934;2024-01-30T04:52:55;9.83;;;6.97;;
15449;SDS011;7826;49.784;9.934;2024-01-30T04:55:21;9.30;;;7.23;;
15449;SDS011;7826;49.784;9.934;2024-01-30T04:57:47;12.03;;;7.30;;
15449;SDS011;7826;49.784;9.934;2024-01-30T05:00:13;13.40;;;7.53;;
15449;SDS011;7826;49.784;9.934;2024-01-30T05:02:40;11.03;;;7.13;;
15449;SDS011;7826;49.784;9.934;2024-01-30T05:05:06;9.80;;;6.80;;
15449;SDS011;7826;49.784;9.934;2024-01-30T05:07:33;11.83;;;7.00;;
15449;SDS011;7826;49.784;9.934;2024-01-30T05:09:59;11.37;;;7.10;;
15449;SDS011;7826;49.784;9.934;2024-01-30T05:12:26;12.57;;;6.87;;
15449;SDS011;7826;49.784;9.934;2024-01-30T05:14:52;9.20;;;6.63;;
15449;SDS011;7826;49.784;9.934;2024-01-30T05:17:18;10.53;;;6.60;;
15449;SDS011;7826;49.784;9.934;2024-01-30T05:19:44;10.03;;;7.00;;
15449;SDS011;7826;49.784;9.934;2024-01-30T05:22:10;10.43;;;7.37;;
15449;SDS011;7826;49.784;9.934;2024-01-30T05:24:41;12.10;;;8.13;;
15449;SDS011;7826;49.784;9.934;2024-01-30T05:27:10;11.43;;;8.43;;
15449;SDS011;7826;49.784;9.934;2024-01-30T05:29:36;13.40;;;7.80;;
15449;SDS011;7826;49.784;9.934;2024-01-30T05:32:03;10.93;;;7.17;;
15449;SDS011;7826;49.784;9.934;2024-01-30T05:34:31;10.63;;;6.97;;
15449;SDS011;7826;49.784;9.934;2024-01-30T05:36:57;10.27;;;6.97;;
15449;SDS011;7826;49.784;9.934;2024-01-30T05:39:24;11.83;;;6.80;;
15449;SDS011;7826;49.784;9.934;2024-01-30T05:41:50;10.37;;;6.80;;
15449;SDS011;7826;49.784;9.934;2024-01-30T05:44:16;10.47;;;7.30;;
15449;SDS011;7826;49.784;9.934;2024-01-30T05:46:42;10.30;;;7.03;;
15449;SDS011;7826;49.784;9.934;2024-01-30T05:49:08;12.80;;;7.03;;
15449;SDS011;7826;49.784;9.934;2024-01-30T05:51:34;11.13;;;7.30;;
15449;SDS011;7826;49.784;9.934;2024-01-30T05:54:00;8.77;;;7.00;;
15449;SDS011;7826;49.784;9.934;2024-01-30T05:56:29;10.87;;;6.97;;
15449;SDS011;7826;49.784;9.934;2024-01-30T05:58:55;10.57;;;6.63;;
15449;SDS011;7826;49.784;9.934;2024-01-30T06:01:21;10.30;;;6.90;;
15449;SDS011;7826;49.784;9.934;2024-01-30T06:03:47;11.83;;;7.13;;
15449;SDS011;7826;49.784;9.934;2024-01-30T06:31:58;9.97;;;6.73;;
15449;SDS011;7826;49.784;9.934;2024-01-30T06:34:24;8.80;;;6.17;;
15449;SDS011;7826;49.784;9.934;2024-01-30T06:36:52;11.80;;;6.90;;
15449;SDS011;7826;49.784;9.934;2024-01-30T06:39:18;7.87;;;5.83;;
15449;SDS011;7826;49.784;9.934;2024-01-30T06:41:44;9.20;;;6.47;;
15449;SDS011;7826;49.784;9.934;2024-01-30T06:44:12;11.40;;;6.30;;
15449;SDS011;7826;49.784;9.934;2024-01-30T06:46:38;10.17;;;6.70;;
15449;SDS011;7826;49.784;9.934;2024-01-30T06:49:04;11.70;;;6.90;;
15449;SDS011;7826;49.784;9.934;2024-01-30T06:51:31;11.77;;;6.80;;
15449;SDS011;7826;49.784;9.934;2024-01-30T06:53:57;13.17;;;6.83;;
15449;SDS011;7826;49.784;9.934;2024-01-30T06:56:23;10.93;;;6.47;;
15449;SDS011;7826;49.784;9.934;2024-01-30T06:58:49;12.17;;;6.67;;
15449;SDS011;7826;49.784;9.934;2024-01-30T07:01:16;8.67;;;6.17;;
15449;SDS011;7826;49.784;9.934;2024-01-30T07:03:42;10.20;;;6.80;;
15449;SDS011;7826;49.784;9.934;2024-01-30T07:06:09;10.07;;;6.47;;
15449;SDS011;7826;49.784;9.934;2024-01-30T07:08:36;9.63;;;6.53;;
15449;SDS011;7826;49.784;9.934;2024-01-30T07:11:05;11.23;;;6.97;;
15449;SDS011;7826;49.784;9.934;2024-01-30T07:13:32;8.37;;;5.80;;
15449;SDS011;7826;49.784;9.934;2024-01-30T07:15:59;11.67;;;6.47;;
15449;SDS011;7826;49.784;9.934;2024-01-30T07:18:25;10.50;;;6.83;;
15449;SDS011;7826;49.784;9.934;2024-01-30T07:20:52;9.17;;;6.33;;
15449;SDS011;7826;49.784;9.934;2024-01-30T07:23:18;8.40;;;6.37;;
15449;SDS011;7826;49.784;9.934;2024-01-30T07:25:44;9.93;;;6.80;;
15449;SDS011;7826;49.784;9.934;2024-01-30T07:28:10;10.40;;;6.73;;
15449;SDS011;7826;49.784;9.934;2024-01-30T07:30:42;9.43;;;6.37;;
15449;SDS011;7826;49.784;9.934;2024-01-30T07:33:08;8.37;;;5.67;;
15449;SDS011;7826;49.784;9.934;2024-01-30T07:35:35;10.03;;;6.03;;
15449;SDS011;7826;49.784;9.934;2024-01-30T07:38:02;7.53;;;5.60;;
15449;SDS011;7826;49.784;9.934;2024-01-30T07:40:28;9.97;;;5.93;;
15449;SDS011;7826;49.784;9.934;2024-01-30T07:42:55;9.70;;;6.27;;
15449;SDS011;7826;49.784;9.934;2024-01-30T07:45:21;11.87;;;6.63;;
15449;SDS011;7826;49.784;9.934;2024-01-30T07:47:49;10.93;;;6.80;;
15449;SDS011;7826;49.784;9.934;2024-01-30T07:50:16;10.23;;;5.93;;
15449;SDS011;7826;49.784;9.934;2024-01-30T07:52:42;12.20;;;6.90;;
15449;SDS011;7826;49.784;9.934;2024-01-30T07:55:09;11.03;;;6.77;;
15449;SDS011;7826;49.784;9.934;2024-01-30T07:57:35;10.10;;;6.33;;
15449;SDS011;7826;49.784;9.934;2024-01-30T08:00:04;11.33;;;6.80;;
15449;SDS011;7826;49.784;9.934;2024-01-30T08:02:32;8.27;;;5.97;;
15449;SDS011;7826;49.784;9.934;2024-01-30T08:05:17;8.47;;;6.20;;
15449;SDS011;7826;49.784;9.934;2024-01-30T08:07:43;10.13;;;6.30;;
15449;SDS011;7826;49.784;9.934;2024-01-30T08:10:11;9.43;;;6.30;;
15449;SDS011;7826;49.784;9.934;2024-01-30T08:12:38;9.23;;;6.77;;
15449;SDS011;7826;49.784;9.934;2024-01-30T08:15:05;7.90;;;6.23;;
15449;SDS011;7826;49.784;9.934;2024-01-30T08:17:31;8.23;;;5.90;;
15449;SDS011;7826;49.784;9.934;2024-01-30T08:19:57;10.00;;;6.33;;
15449;SDS011;7826;49.784;9.934;2024-01-30T08:22:24;11.23;;;6.53;;
15449;SDS011;7826;49.784;9.934;2024-01-30T08:24:50;9.80;;;6.50;;
15449;SDS011;7826;49.784;9.934;2024-01-30T08:27:16;13.13;;;6.70;;
15449;SDS011;7826;49.784;9.934;2024-01-30T08:29:42;11.57;;;7.20;;
15449;SDS011;7826;49.784;9.934;2024-01-30T08:32:09;13.50;;;6.57;;
15449;SDS011;7826;49.784;9.934;2024-01-30T08:34:35;9.80;;;6.40;;
15449;SDS011;7826;49.784;9.934;2024-01-30T08:37:01;9.40;;;6.63;;
15449;SDS011;7826;49.784;9.934;2024-01-30T08:39:27;10.23;;;6.60;;
15449;SDS011;7826;49.784;9.934;2024-01-30T08:41:53;8.87;;;6.40;;
15449;SDS011;7826;49.784;9.934;2024-01-30T08:44:20;13.20;;;6.70;;
15449;SDS011;7826;49.784;9.934;2024-01-30T08:46:46;11.10;;;6.50;;
15449;SDS011;7826;49.784;9.934;2024-01-30T08:49:13;10.07;;;6.93;;
15449;SDS011;7826;49.784;9.934;2024-01-30T08:51:39;9.90;;;6.53;;
15449;SDS011;7826;49.784;9.934;2024-01-30T08:54:05;10.60;;;6.20;;
15449;SDS011;7826;49.784;9.934;2024-01-30T08:56:32;11.60;;;6.60;;
15449;SDS011;7826;49.784;9.934;2024-01-30T08:58:58;13.30;;;6.67;;
15449;SDS011;7826;49.784;9.934;2024-01-30T09:01:25;17.20;;;8.23;;
15449;SDS011;7826;49.784;9.934;2024-01-30T09:03:51;10.03;;;6.30;;
15449;SDS011;7826;49.784;9.934;2024-01-30T09:06:17;11.63;;;7.20;;
15449;SDS011;7826;49.784;9.934;2024-01-30T09:08:43;10.90;;;6.50;;
15449;SDS011;7826;49.784;9.934;2024-01-30T09:11:13;9.37;;;6.10;;
15449;SDS011;7826;49.784;9.934;2024-01-30T09:13:40;8.07;;;6.03;;
15449;SDS011;7826;49.784;9.934;2024-01-30T09:16:07;10.63;;;5.87;;
15449;SDS011;7826;49.784;9.934;2024-01-30T09:18:33;8.00;;;5.77;;
15449;SDS011;7826;49.784;9.934;2024-01-30T09:20:59;9.13;;;5.50;;
15449;SDS011;7826;49.784;9.934;2024-01-30T09:23:27;7.60;;;5.73;;
15449;SDS011;7826;49.784;9.934;2024-01-30T09:25:53;7.03;;;5.50;;
15449;SDS011;7826;49.784;9.934;2024-01-30T09:28:20;8.83;;;6.27;;
15449;SDS011;7826;49.784;9.934;2024-01-30T09:30:46;10.10;;;6.10;;
15449;SDS011;7826;49.784;9.934;2024-01-30T09:33:12;8.87;;;5.60;;
15449;SDS011;7826;49.784;9.934;2024-01-30T09:35:39;7.80;;;5.23;;
15449;SDS011;7826;49.784;9.934;2024-01-30T09:38:05;6.43;;;5.30;;
15449;SDS011;7826;49.784;9.934;2024-01-30T09:40:31;7.40;;;4.93;;
15449;SDS011;7826;49.784;9.934;2024-01-30T09:42:57;9.47;;;5.37;;
15449;SDS011;7826;49.784;9.934;2024-01-30T09:45:27;8.07;;;5.83;;
15449;SDS011;7826;49.784;9.934;2024-01-30T09:47:55;8.50;;;5.53;;
15449;SDS011;7826;49.784;9.934;2024-01-30T09:50:24;7.07;;;5.13;;
15449;SDS011;7826;49.784;9.934;2024-01-30T09:52:52;7.37;;;5.37;;
15449;SDS011;7826;49.784;9.934;2024-01-30T09:55:22;7.87;;;5.60;;
15449;SDS011;7826;49.784;9.934;2024-01-30T09:57:48;7.97;;;5.43;;
15449;SDS011;7826;49.784;9.934;2024-01-30T10:00:14;6.47;;;5.43;;
15449;SDS011;7826;49.784;9.934;2024-01-30T10:02:41;7.27;;;5.00;;
15449;SDS011;7826;49.784;9.934;2024-01-30T10:05:08;10.83;;;5.60;;
15449;SDS011;7826;49.784;9.934;2024-01-30T10:07:34;8.67;;;5.40;;
15449;SDS011;7826;49.784;9.934;2024-01-30T10:10:00;6.83;;;5.23;;
15449;SDS011;7826;49.784;9.934;2024-01-30T10:12:26;7.70;;;5.67;;
15449;SDS011;7826;49.784;9.934;2024-01-30T10:14:55;7.27;;;5.90;;
15449;SDS011;7826;49.784;9.934;2024-01-30T10:17:24;8.00;;;5.37;;
15449;SDS011;7826;49.784;9.934;2024-01-30T10:19:51;8.67;;;5.83;;
15449;SDS011;7826;49.784;9.934;2024-01-30T10:22:17;6.70;;;5.20;;
15449;SDS011;7826;49.784;9.934;2024-01-30T10:24:43;6.93;;;5.20;;
15449;SDS011;7826;49.784;9.934;2024-01-30T10:27:10;7.43;;;5.60;;
15449;SDS011;7826;49.784;9.934;2024-01-30T10:29:37;7.07;;;5.13;;
15449;SDS011;7826;49.784;9.934;2024-01-30T10:32:04;7.27;;;5.30;;
15449;SDS011;7826;49.784;9.934;2024-01-30T10:34:31;7.70;;;5.67;;
15449;SDS011;7826;49.784;9.934;2024-01-30T10:37:00;6.47;;;5.47;;
15449;SDS011;7826;49.784;9.934;2024-01-30T10:39:38;7.87;;;5.57;;
15449;SDS011;7826;49.784;9.934;2024-01-30T10:42:05;8.03;;;5.30;;
15449;SDS011;7826;49.784;9.934;2024-01-30T10:44:36;6.80;;;5.27;;
15449;SDS011;7826;49.784;9.934;2024-01-30T10:47:35;7.10;;;5.20;;
15449;SDS011;7826;49.784;9.934;2024-01-30T10:50:02;6.27;;;5.17;;
15449;SDS011;7826;49.784;9.934;2024-01-30T10:52:29;8.33;;;5.47;;
15449;SDS011;7826;49.784;9.934;2024-01-30T10:54:56;9.70;;;5.57;;
15449;SDS011;7826;49.784;9.934;2024-01-30T10:57:23;8.60;;;5.07;;
15449;SDS011;7826;49.784;9.934;2024-01-30T10:59:51;8.10;;;5.23;;
15449;SDS011;7826;49.784;9.934;2024-01-30T11:02:20;7.93;;;5.40;;
15449;SDS011;7826;49.784;9.934;2024-01-30T11:04:49;8.43;;;5.67;;
15449;SDS011;7826;49.784;9.934;2024-01-30T11:07:24;8.77;;;5.43;;
15449;SDS011;7826;49.784;9.934;2024-01-30T11:10:02;9.40;;;5.93;;
15449;SDS011;7826;49.784;9.934;2024-01-30T11:12:30;7.00;;;5.27;;
15449;SDS011;7826;49.784;9.934;2024-01-30T11:15:07;6.53;;;5.30;;
15449;SDS011;7826;49.784;9.934;2024-01-30T11:20:16;10.50;;;5.57;;
15449;SDS011;7826;49.784;9.934;2024-01-30T11:23:01;9.37;;;5.67;;
15449;SDS011;7826;49.784;9.934;2024-01-30T11:25:31;9.80;;;5.67;;
15449;SDS011;7826;49.784;9.934;2024-01-30T11:27:58;10.07;;;5.33;;
15449;SDS011;7826;49.784;9.934;2024-01-30T11:30:24;8.80;;;5.83;;
15449;SDS011;7826;49.784;9.934;2024-01-30T11:38:13;8.57;;;5.43;;
15449;SDS011;7826;49.784;9.934;2024-01-30T11:40:40;6.90;;;5.33;;
15449;SDS011;7826;49.784;9.934;2024-01-30T11:43:07;8.27;;;5.77;;
15449;SDS011;7826;49.784;9.934;2024-01-30T11:45:34;8.57;;;5.30;;
15449;SDS011;7826;49.784;9.934;2024-01-30T11:48:02;7.43;;;5.87;;
15449;SDS011;7826;49.784;9.934;2024-01-30T11:50:29;6.60;;;5.70;;
15449;SDS011;7826;49.784;9.934;2024-01-30T11:52:56;10.63;;;5.70;;
15449;SDS011;7826;49.784;9.934;2024-01-30T11:55:26;8.07;;;5.90;;
15449;SDS011;7826;49.784;9.934;2024-01-30T11:58:14;8.47;;;5.53;;
15449;SDS011;7826;49.784;9.934;2024-01-30T12:00:40;7.47;;;5.40;;
15449;SDS011;7826;49.784;9.934;2024-01-30T12:03:06;8.87;;;5.20;;
15449;SDS011;7826;49.784;9.934;2024-01-30T12:05:32;8.23;;;5.80;;
15449;SDS011;7826;49.784;9.934;2024-01-30T12:07:59;7.93;;;5.33;;
15449;SDS011;7826;49.784;9.934;2024-01-30T12:10:25;8.17;;;5.33;;
15449;SDS011;7826;49.784;9.934;2024-01-30T12:12:52;8.60;;;5.73;;
15449;SDS011;7826;49.784;9.934;2024-01-30T12:15:19;7.47;;;5.33;;
15449;SDS011;7826;49.784;9.934;2024-01-30T12:17:47;8.90;;;6.27;;
15449;SDS011;7826;49.784;9.934;2024-01-30T12:20:14;8.13;;;5.70;;
15449;SDS011;7826;49.784;9.934;2024-01-30T12:22:44;8.60;;;5.43;;
15449;SDS011;7826;49.784;9.934;2024-01-30T12:25:21;8.30;;;5.83;;
15449;SDS011;7826;49.784;9.934;2024-01-30T12:27:49;8.20;;;5.17;;
15449;SDS011;7826;49.784;9.934;2024-01-30T12:30:16;10.73;;;5.47;;
15449;SDS011;7826;49.784;9.934;2024-01-30T12:32:44;7.13;;;5.60;;
15449;SDS011;7826;49.784;9.934;2024-01-30T12:35:12;7.77;;;5.67;;
15449;SDS011;7826;49.784;9.934;2024-01-30T12:37:39;9.97;;;6.00;;
15449;SDS011;7826;49.784;9.934;2024-01-30T12:40:07;10.07;;;6.27;;
15449;SDS011;7826;49.784;9.934;2024-01-30T12:42:33;7.87;;;5.73;;
15449;SDS011;7826;49.784;9.934;2024-01-30T12:45:00;10.00;;;6.43;;
15449;SDS011;7826;49.784;9.934;2024-01-30T12:47:27;6.57;;;5.43;;
15449;SDS011;7826;49.784;9.934;2024-01-30T12:49:53;10.33;;;6.23;;
15449;SDS011;7826;49.784;9.934;2024-01-30T12:52:20;8.30;;;5.50;;
15449;SDS011;7826;49.784;9.934;2024-01-30T12:54:47;7.63;;;5.33;;
15449;SDS011;7826;49.784;9.934;2024-01-30T12:57:14;9.57;;;6.00;;
15449;SDS011;7826;49.784;9.934;2024-01-30T12:59:40;8.67;;;6.20;;
15449;SDS011;7826;49.784;9.934;2024-01-30T13:02:06;9.50;;;5.90;;
15449;SDS011;7826;49.784;9.934;2024-01-30T13:04:32;8.20;;;5.67;;
15449;SDS011;7826;49.784;9.934;2024-01-30T13:06:59;9.90;;;5.90;;
15449;SDS011;7826;49.784;9.934;2024-01-30T13:09:26;9.07;;;6.47;;
15449;SDS011;7826;49.784;9.934;2024-01-30T13:11:52;9.30;;;6.03;;
15449;SDS011;7826;49.784;9.934;2024-01-30T13:14:19;8.33;;;5.87;;
15449;SDS011;7826;49.784;9.934;2024-01-30T13:16:45;9.80;;;6.03;;
15449;SDS011;7826;49.784;9.934;2024-01-30T13:19:11;7.60;;;6.17;;
15449;SDS011;7826;49.784;9.934;2024-01-30T13:21:37;6.93;;;5.60;;
15449;SDS011;7826;49.784;9.934;2024-01-30T13:24:03;7.70;;;6.10;;
15449;SDS011;7826;49.784;9.934;2024-01-30T13:26:31;10.27;;;6.00;;
15449;SDS011;7826;49.784;9.934;2024-01-30T13:28:59;9.37;;;6.23;;
15449;SDS011;7826;49.784;9.934;2024-01-30T13:31:25;8.37;;;6.23;;
15449;SDS011;7826;49.784;9.934;2024-01-30T13:33:53;9.07;;;6.47;;
15449;SDS011;7826;49.784;9.934;2024-01-30T13:36:19;8.73;;;5.77;;
15449;SDS011;7826;49.784;9.934;2024-01-30T13:38:46;8.60;;;6.23;;
15449;SDS011;7826;49.784;9.934;2024-01-30T13:41:12;10.77;;;6.50;;
15449;SDS011;7826;49.784;9.934;2024-01-30T13:43:39;8.37;;;6.10;;
15449;SDS011;7826;49.784;9.934;2024-01-30T13:46:05;12.50;;;6.60;;
15449;SDS011;7826;49.784;9.934;2024-01-30T13:48:31;6.93;;;5.80;;
15449;SDS011;7826;49.784;9.934;2024-01-30T13:50:57;9.10;;;5.93;;
15449;SDS011;7826;49.784;9.934;2024-01-30T13:53:24;9.23;;;6.03;;
15449;SDS011;7826;49.784;9.934;2024-01-30T13:55:50;9.20;;;6.30;;
15449;SDS011;7826;49.784;9.934;2024-01-30T13:58:16;7.57;;;5.67;;
15449;SDS011;7826;49.784;9.934;2024-01-30T14:00:42;6.27;;;5.30;;
15449;SDS011;7826;49.784;9.934;2024-01-30T14:03:08;10.70;;;6.13;;
15449;SDS011;7826;49.784;9.934;2024-01-30T14:05:34;8.17;;;5.87;;
15449;SDS011;7826;49.784;9.934;2024-01-30T14:08:01;9.30;;;5.87;;
15449;SDS011;7826;49.784;9.934;2024-01-30T14:10:27;9.80;;;5.63;;
15449;SDS011;7826;49.784;9.934;2024-01-30T14:12:53;9.20;;;5.60;;
15449;SDS011;7826;49.784;9.934;2024-01-30T14:15:19;8.07;;;5.70;;
15449;SDS011;7826;49.784;9.934;2024-01-30T14:17:46;7.87;;;6.07;;
15449;SDS011;7826;49.784;9.934;2024-01-30T14:20:15;9.33;;;5.60;;
15449;SDS011;7826;49.784;9.934;2024-01-30T14:22:44;7.07;;;5.20;;
15449;SDS011;7826;49.784;9.934;2024-01-30T14:25:10;6.23;;;5.37;;
15449;SDS011;7826;49.784;9.934;2024-01-30T14:27:37;7.77;;;5.87;;
15449;SDS011;7826;49.784;9.934;2024-01-30T14:30:04;8.97;;;6.23;;
15449;SDS011;7826;49.784;9.934;2024-01-30T14:32:30;7.40;;;5.60;;
15449;SDS011;7826;49.784;9.934;2024-01-30T14:34:56;8.10;;;6.00;;
15449;SDS011;7826;49.784;9.934;2024-01-30T14:37:23;7.80;;;5.77;;
15449;SDS011;7826;49.784;9.934;2024-01-30T14:39:49;10.33;;;5.63;;
15449;SDS011;7826;49.784;9.934;2024-01-30T14:42:15;10.63;;;5.67;;
15449;SDS011;7826;49.784;9.934;2024-01-30T14:44:42;7.13;;;5.50;;
15449;SDS011;7826;49.784;9.934;2024-01-30T14:47:08;7.37;;;5.10;;
15449;SDS011;7826;49.784;9.934;2024-01-30T14:49:35;8.10;;;5.57;;
15449;SDS011;7826;49.784;9.934;2024-01-30T14:52:01;6.27;;;5.00;;
15449;SDS011;7826;49.784;9.934;2024-01-30T14:54:29;7.73;;;5.10;;
15449;SDS011;7826;49.784;9.934;2024-01-30T14:56:56;7.27;;;5.33;;
15449;SDS011;7826;49.784;9.934;2024-01-30T14:59:23;9.63;;;5.83;;
15449;SDS011;7826;49.784;9.934;2024-01-30T15:01:49;7.27;;;5.13;;
15449;SDS011;7826;49.784;9.934;2024-01-30T15:04:16;7.53;;;5.50;;
15449;SDS011;7826;49.784;9.934;2024-01-30T15:06:43;7.03;;;5.13;;
15449;SDS011;7826;49.784;9.934;2024-01-30T15:09:11;6.10;;;5.30;;
15449;SDS011;7826;49.784;9.934;2024-01-30T15:11:44;8.10;;;5.80;;
15449;SDS011;7826;49.784;9.934;2024-01-30T15:14:10;7.07;;;5.67;;
15449;SDS011;7826;49.784;9.934;2024-01-30T15:16:37;8.37;;;5.30;;
15449;SDS011;7826;49.784;9.934;2024-01-30T15:19:03;6.97;;;5.47;;
15449;SDS011;7826;49.784;9.934;2024-01-30T15:21:30;8.17;;;5.30;;
15449;SDS011;7826;49.784;9.934;2024-01-30T15:23:57;9.63;;;5.57;;
15449;SDS011;7826;49.784;9.934;2024-01-30T15:26:23;6.77;;;5.03;;
15449;SDS011;7826;49.784;9.934;2024-01-30T15:28:50;8.27;;;5.33;;
15449;SDS011;7826;49.784;9.934;2024-01-30T15:31:16;7.90;;;5.23;;
15449;SDS011;7826;49.784;9.934;2024-01-30T15:33:42;6.40;;;5.17;;
15449;SDS011;7826;49.784;9.934;2024-01-30T15:36:08;8.37;;;5.67;;
15449;SDS011;7826;49.784;9.934;2024-01-30T15:38:38;7.90;;;5.40;;
15449;SDS011;7826;49.784;9.934;2024-01-30T15:41:05;7.90;;;4.93;;
15449;SDS011;7826;49.784;9.934;2024-01-30T15:43:31;6.93;;;5.50;;
15449;SDS011;7826;49.784;9.934;2024-01-30T15:46:01;7.13;;;5.60;;
15449;SDS011;7826;49.784;9.934;2024-01-30T15:48:28;7.27;;;5.63;;
15449;SDS011;7826;49.784;9.934;2024-01-30T15:50:56;7.90;;;5.60;;
15449;SDS011;7826;49.784;9.934;2024-01-30T15:53:22;9.50;;;5.83;;
15449;SDS011;7826;49.784;9.934;2024-01-30T15:55:48;8.97;;;5.60;;
15449;SDS011;7826;49.784;9.934;2024-01-30T15:58:14;7.43;;;5.43;;
15449;SDS011;7826;49.784;9.934;2024-01-30T16:00:40;7.87;;;5.90;;
15449;SDS011;7826;49.784;9.934;2024-01-30T16:03:06;8.87;;;5.37;;
15449;SDS011;7826;49.784;9.934;2024-01-30T16:05:32;7.40;;;5.70;;
15449;SDS011;7826;49.784;9.934;2024-01-30T16:07:59;7.77;;;5.40;;
15449;SDS011;7826;49.784;9.934;2024-01-30T16:10:25;7.97;;;6.57;;
15449;SDS011;7826;49.784;9.934;2024-01-30T16:12:51;8.20;;;5.43;;
15449;SDS011;7826;49.784;9.934;2024-01-30T16:15:18;7.03;;;5.53;;
15449;SDS011;7826;49.784;9.934;2024-01-30T16:17:45;8.33;;;5.77;;
15449;SDS011;7826;49.784;9.934;2024-01-30T16:20:11;6.90;;;5.47;;
15449;SDS011;7826;49.784;9.934;2024-01-30T16:22:40;7.07;;;5.40;;
15449;SDS011;7826;49.784;9.934;2024-01-30T16:25:06;8.93;;;6.10;;
15449;SDS011;7826;49.784;9.934;2024-01-30T16:27:33;8.90;;;5.83;;
15449;SDS011;7826;49.784;9.934;2024-01-30T16:29:59;12.80;;;6.20;;
15449;SDS011;7826;49.784;9.934;2024-01-30T16:32:25;9.00;;;5.50;;
15449;SDS011;7826;49.784;9.934;2024-01-30T16:34:51;8.85;;;6.63;;
15449;SDS011;7826;49.784;9.934;2024-01-30T16:37:17;9.97;;;6.37;;
15449;SDS011;7826;49.784;9.934;2024-01-30T16:39:43;8.10;;;5.80;;
15449;SDS011;7826;49.784;9.934;2024-01-30T16:42:09;10.67;;;6.40;;